Jaime Prats, Argentina
Current Conditions -  °F | °C
As of 12:00 AM on Thursday 27 Nov 2014 (Local Time) from SAME Reporting Station
Clear Clear  
Wind Chill: 79°   Ceiling: Unl
Heat Index: 79°   Visibility: 6mi
Dew Point: 43°   Wind: 2mph
Humidity: 28%   Direction: 270°W
Pressure: 29.94"   Gusts: NA
Location:  34.91°S, 67.82°W
Report Text: SAME 270300Z 27002KT CAVOK 26/06 Q1014
Loading
Personal Weather Stations






























Interactive Weather Map New forecast layout! Learn more

10-Day Weather Forecast

Advertisements
Track Severe Weather on mobile